createdAt,value
2018-09-12T00:01:56.023Z,4.40
2018-09-12T00:06:58.292Z,7.90
2018-09-12T00:12:00.415Z,2.70
2018-09-12T00:17:02.550Z,7.93
2018-09-12T00:22:05.271Z,6.30
2018-09-12T00:27:07.416Z,4.80
2018-09-12T00:32:09.544Z,4.40
2018-09-12T00:37:11.683Z,5.67
2018-09-12T00:42:13.811Z,5.67
2018-09-12T00:47:15.964Z,5.53
2018-09-12T00:52:18.234Z,5.93
2018-09-12T00:57:20.347Z,9.73
2018-09-12T01:02:22.497Z,3.43
2018-09-12T01:07:24.644Z,6.93
2018-09-12T01:12:26.780Z,5.63
2018-09-12T01:17:28.940Z,6.00
2018-09-12T01:22:31.070Z,7.60
2018-09-12T01:27:33.226Z,5.70
2018-09-12T01:32:35.421Z,4.23
2018-09-12T01:37:37.530Z,7.70
2018-09-12T01:42:39.681Z,4.83
2018-09-12T01:47:41.795Z,5.63
2018-09-12T01:52:44.343Z,5.70
2018-09-12T01:57:46.457Z,2.43
2018-09-12T02:02:48.634Z,5.58
2018-09-12T02:07:50.788Z,6.40
2018-09-12T02:12:52.885Z,4.60
2018-09-12T02:17:55.012Z,11.17
2018-09-12T02:22:57.176Z,6.93
2018-09-12T02:27:59.337Z,4.83
2018-09-12T02:33:01.502Z,3.67
2018-09-12T02:38:03.709Z,4.97
2018-09-12T02:43:05.869Z,5.30
2018-09-12T02:48:07.978Z,5.37
2018-09-12T02:53:10.088Z,5.80
2018-09-12T02:58:12.216Z,7.00
2018-09-12T03:03:14.322Z,7.77
2018-09-12T03:08:16.464Z,6.87
2018-09-12T03:13:18.607Z,2.30
2018-09-12T03:18:20.747Z,6.93
2018-09-12T03:23:22.887Z,7.90
2018-09-12T03:28:25.031Z,14.37
2018-09-12T03:33:27.149Z,13.00
2018-09-12T03:38:29.256Z,6.03
2018-09-12T03:43:31.374Z,4.50
2018-09-12T03:48:33.495Z,8.93
2018-09-12T03:53:35.623Z,8.67
2018-09-12T03:58:37.750Z,13.50
2018-09-12T04:03:39.883Z,16.27
2018-09-12T04:08:41.983Z,8.40
2018-09-12T04:13:44.161Z,6.50
2018-09-12T04:18:46.311Z,7.60
2018-09-12T04:23:48.490Z,6.00
2018-09-12T04:28:50.614Z,12.07
2018-09-12T04:33:52.741Z,12.13
2018-09-12T04:38:54.858Z,12.80
2018-09-12T04:43:57.062Z,12.40
2018-09-12T04:48:59.251Z,12.40
2018-09-12T04:54:01.396Z,11.33
2018-09-12T04:59:03.904Z,9.30
2018-09-12T05:04:06.036Z,12.90
2018-09-12T05:09:09.441Z,8.83
2018-09-12T05:14:11.595Z,9.20
2018-09-12T05:19:13.777Z,15.13
2018-09-12T05:24:15.943Z,19.53
2018-09-12T05:29:18.065Z,20.40
2018-09-12T05:34:20.183Z,20.27
2018-09-12T05:39:22.331Z,17.60
2018-09-12T05:44:24.471Z,14.40
2018-09-12T05:49:26.637Z,13.60
2018-09-12T05:54:28.770Z,12.23
2018-09-12T05:59:30.904Z,13.70
2018-09-12T06:04:33.047Z,11.03
2018-09-12T06:09:35.208Z,12.83
2018-09-12T06:14:37.371Z,10.10
2018-09-12T06:19:39.463Z,9.57
2018-09-12T06:24:41.632Z,9.10
2018-09-12T06:29:43.819Z,9.77
2018-09-12T06:34:45.914Z,8.17
2018-09-12T06:39:48.084Z,7.47
2018-09-12T06:44:50.225Z,7.73
2018-09-12T06:49:52.525Z,7.43
2018-09-12T06:54:54.641Z,4.83
2018-09-12T06:59:56.759Z,6.90
2018-09-12T07:04:58.898Z,6.20
2018-09-12T07:10:00.990Z,6.57
2018-09-12T07:15:03.164Z,9.13
2018-09-12T07:20:05.336Z,9.43
2018-09-12T07:25:07.502Z,12.20
2018-09-12T07:30:09.685Z,6.93
2018-09-12T07:35:11.799Z,5.93
2018-09-12T07:40:13.933Z,7.23
2018-09-12T07:45:16.080Z,14.00
2018-09-12T07:50:18.232Z,6.10
2018-09-12T07:55:20.434Z,9.20
2018-09-12T08:00:22.592Z,7.90
2018-09-12T08:05:24.683Z,13.63
2018-09-12T08:10:26.785Z,11.53
2018-09-12T08:15:28.923Z,10.80
2018-09-12T08:20:31.036Z,9.10
2018-09-12T08:25:33.236Z,5.73
2018-09-12T08:30:35.376Z,6.63
2018-09-12T08:35:37.526Z,6.93
2018-09-12T08:40:39.663Z,7.90
2018-09-12T08:45:42.020Z,9.23
2018-09-12T08:50:48.199Z,7.53
2018-09-12T08:55:50.349Z,10.40
2018-09-12T09:00:52.469Z,5.80
2018-09-12T09:05:54.613Z,3.43
2018-09-12T09:10:57.064Z,12.50
2018-09-12T09:15:59.197Z,6.20
2018-09-12T09:21:01.398Z,5.60
2018-09-12T09:26:03.618Z,7.43
2018-09-12T09:31:05.750Z,5.80
2018-09-12T09:36:07.951Z,10.90
2018-09-12T09:41:10.120Z,6.20
2018-09-12T09:46:12.332Z,5.13
2018-09-12T09:51:14.502Z,9.97
2018-09-12T09:56:16.708Z,7.00
2018-09-12T10:01:24.646Z,6.10
2018-09-12T10:06:32.183Z,8.83
2018-09-12T10:11:34.310Z,11.67
2018-09-12T10:16:36.457Z,17.30
2018-09-12T10:21:38.587Z,18.80
2018-09-12T10:26:40.756Z,11.70
2018-09-12T10:31:42.966Z,9.23
2018-09-12T10:36:45.123Z,8.70
2018-09-12T10:41:47.328Z,6.83
2018-09-12T10:46:49.478Z,4.10
2018-09-12T10:51:51.700Z,7.90
2018-09-12T10:56:53.859Z,4.27
2018-09-12T11:01:56.006Z,3.97
2018-09-12T11:06:58.130Z,2.40
2018-09-12T11:12:00.283Z,3.93
2018-09-12T11:17:02.458Z,3.57
2018-09-12T11:22:04.635Z,7.97
2018-09-12T11:27:06.811Z,5.90
2018-09-12T11:32:08.979Z,8.17
2018-09-12T11:37:11.123Z,3.17
2018-09-12T11:42:13.284Z,2.60
2018-09-12T11:47:15.389Z,6.10
2018-09-12T11:52:17.512Z,8.40
2018-09-12T11:57:19.658Z,11.23
2018-09-12T12:02:22.268Z,4.37
2018-09-12T12:07:24.554Z,2.50
2018-09-12T12:12:26.691Z,4.20
2018-09-12T12:17:28.844Z,4.50
2018-09-12T12:22:30.979Z,4.00
2018-09-12T12:27:33.212Z,3.30
2018-09-12T12:32:35.360Z,4.30
2018-09-12T12:37:37.539Z,2.10
2018-09-12T12:42:39.687Z,3.50
2018-09-12T12:47:41.870Z,2.93
2018-09-12T12:52:44.002Z,3.20
2018-09-12T12:57:46.439Z,2.80
2018-09-12T13:02:48.612Z,4.73
2018-09-12T13:07:50.789Z,1.67
2018-09-12T13:12:52.951Z,3.47
2018-09-12T13:17:55.402Z,2.43
2018-09-12T13:22:57.588Z,2.47
2018-09-12T13:27:59.860Z,4.80
2018-09-12T13:33:01.995Z,2.70
2018-09-12T13:38:04.199Z,1.13
2018-09-12T13:43:06.366Z,6.40
2018-09-12T13:48:08.586Z,4.50
2018-09-12T13:53:10.766Z,2.37
2018-09-12T13:58:12.906Z,1.60
2018-09-12T14:03:15.417Z,2.30
2018-09-12T14:08:17.552Z,4.90
2018-09-12T14:13:19.708Z,1.90
2018-09-12T14:18:21.819Z,2.67
2018-09-12T14:23:23.971Z,2.97
2018-09-12T14:28:26.158Z,2.60
2018-09-12T14:33:28.333Z,2.70
2018-09-12T14:38:30.505Z,7.27
2018-09-12T14:43:32.699Z,4.17
2018-09-12T14:48:35.395Z,4.30
2018-09-12T14:53:37.558Z,2.20
2018-09-12T14:58:39.729Z,4.03
2018-09-12T15:03:41.870Z,5.20
2018-09-12T15:08:44.027Z,3.23
2018-09-12T15:13:46.212Z,9.03
2018-09-12T15:18:48.628Z,1.97
2018-09-12T15:23:50.799Z,2.30
2018-09-12T15:28:53.011Z,1.80
2018-09-12T15:33:55.180Z,6.03
2018-09-12T15:38:57.362Z,4.90
2018-09-12T15:43:59.530Z,2.97
2018-09-12T15:49:01.671Z,2.77
2018-09-12T15:54:03.845Z,1.33
2018-09-12T15:59:06.063Z,3.60
2018-09-12T16:04:09.186Z,5.10
2018-09-12T16:09:11.429Z,4.27
2018-09-12T16:14:14.338Z,1.93
2018-09-12T16:19:16.466Z,6.40
2018-09-12T16:24:18.605Z,6.37
2018-09-12T16:29:20.807Z,5.53
2018-09-12T16:34:23.007Z,8.10
2018-09-12T16:39:25.199Z,3.80
2018-09-12T16:44:27.404Z,6.87
2018-09-12T16:49:29.605Z,3.03
2018-09-12T16:54:32.067Z,4.50
2018-09-12T16:59:34.310Z,6.10
2018-09-12T17:04:36.498Z,4.20
2018-09-12T17:09:38.709Z,8.47
2018-09-12T17:14:40.949Z,3.73
2018-09-12T17:19:43.763Z,3.93
2018-09-12T17:24:45.974Z,7.37
2018-09-12T17:29:49.000Z,4.03
2018-09-12T17:34:51.174Z,5.73
2018-09-12T17:39:53.401Z,2.67
2018-09-12T17:44:55.646Z,4.93
2018-09-12T17:49:57.807Z,2.30
2018-09-12T17:55:00.491Z,6.80
2018-09-12T18:00:02.734Z,4.30
2018-09-12T18:05:05.070Z,4.67
2018-09-12T18:10:07.363Z,3.83
2018-09-12T18:15:09.644Z,11.27
2018-09-12T18:20:11.937Z,8.60
2018-09-12T18:25:14.252Z,6.23
2018-09-12T18:30:17.723Z,7.10
2018-09-12T18:35:19.992Z,2.20
2018-09-12T18:40:22.404Z,7.67
2018-09-12T18:45:24.816Z,4.00
2018-09-12T18:50:27.066Z,4.43
2018-09-12T18:55:29.413Z,6.63
2018-09-12T19:00:32.496Z,2.03
2018-09-12T19:05:34.735Z,8.80
2018-09-12T19:10:37.392Z,6.53
2018-09-12T19:15:39.721Z,6.70
2018-09-12T19:20:43.914Z,6.97
2018-09-12T19:25:46.792Z,5.17
2018-09-12T19:30:49.623Z,7.13
2018-09-12T19:35:53.492Z,10.53
2018-09-12T19:40:55.888Z,2.80
2018-09-12T19:45:58.866Z,3.57
2018-09-12T19:51:01.258Z,7.30
2018-09-12T19:56:03.478Z,2.83
2018-09-12T20:01:05.761Z,7.90
2018-09-12T20:06:08.044Z,12.00
2018-09-12T20:11:10.318Z,5.50
2018-09-12T20:16:12.669Z,5.03
2018-09-12T20:21:14.862Z,9.23
2018-09-12T20:26:17.104Z,3.17
2018-09-12T20:31:20.701Z,4.83
2018-09-12T20:36:22.942Z,4.70
2018-09-12T20:41:25.719Z,5.33
2018-09-12T20:46:27.952Z,8.40
2018-09-12T20:51:30.127Z,8.53
2018-09-12T20:56:32.410Z,13.60
2018-09-12T21:01:34.612Z,2.40
2018-09-12T21:06:36.860Z,6.57
2018-09-12T21:11:39.556Z,14.43
2018-09-12T21:16:41.743Z,8.30
2018-09-12T21:21:43.869Z,5.30
2018-09-12T21:26:46.042Z,8.07
2018-09-12T21:31:48.284Z,8.43
2018-09-12T21:36:50.423Z,6.90
2018-09-12T21:41:52.617Z,7.00
2018-09-12T21:46:54.875Z,11.37
2018-09-12T21:51:56.992Z,10.60
2018-09-12T21:56:59.109Z,4.53
2018-09-12T22:02:01.278Z,5.90
2018-09-12T22:07:03.496Z,6.30
2018-09-12T22:12:05.646Z,5.43
2018-09-12T22:17:07.854Z,5.53
2018-09-12T22:22:10.060Z,6.60
2018-09-12T22:27:12.194Z,6.10
2018-09-12T22:32:14.364Z,6.53
2018-09-12T22:37:16.509Z,8.87
2018-09-12T22:42:18.614Z,6.67
2018-09-12T22:47:20.743Z,6.80
2018-09-12T22:52:22.924Z,6.67
2018-09-12T22:57:25.053Z,7.70
2018-09-12T23:02:27.171Z,6.30
2018-09-12T23:07:29.323Z,4.87
2018-09-12T23:12:31.506Z,5.97
2018-09-12T23:17:33.657Z,10.73
2018-09-12T23:22:35.968Z,7.87
2018-09-12T23:27:38.090Z,8.20
2018-09-12T23:32:40.287Z,10.07
2018-09-12T23:37:42.454Z,5.20
2018-09-12T23:42:44.549Z,7.37
2018-09-12T23:47:46.691Z,6.63
2018-09-12T23:52:48.814Z,10.10
2018-09-12T23:57:50.991Z,8.10
